Shana Des Slops — FFZR — position and weather

sailwx.info

Track history (hours):
 
Tides and Currents Weather Stations Pressure Air Temp Water Temp Dewpoint Dewpoint Depression Visibility Wind Speed Wind Dir Waves Ship Positions

Shana Des Slops

Last reported at 2016-Aug-31 03:30 UTC. Time now 2016-Aug-31 04:19 UTC.
Position N 43°24' E 004°60'.

Length 47 m; draft 3.2 m.

Type: Ship. MMSI: 228003800.

Date/timePositionNaut miles runAvg speedWind from/ knotsBaromVisibWave heightAir tempDewpointWater temp
2016-Aug-31 03:30N 43°24' E 004°60'0 0.0
2016-Aug-31 02:33N 43°24' E 004°60'0 0.0
2016-Aug-31 01:33N 43°24' E 004°60'0 0.0
2016-Aug-31 00:33N 43°24' E 004°60'0 0.0
2016-Aug-30 23:31N 43°24' E 004°60'0 0.0
2016-Aug-30 22:31N 43°24' E 004°60'0 0.0
2016-Aug-30 21:31N 43°24' E 004°60'0 0.0
2016-Aug-30 20:31N 43°24' E 004°60'0 0.0
2016-Aug-30 19:28N 43°24' E 004°60'0 0.0
2016-Aug-30 18:33N 43°24' E 004°60'0 0.0
2016-Aug-30 17:33N 43°24' E 004°60'0 0.0
2016-Aug-30 16:33N 43°24' E 004°60'0 0.0
2016-Aug-30 15:33N 43°24' E 004°60'0 0.0
2016-Aug-30 14:27N 43°24' E 004°60'0 0.0
2016-Aug-30 13:33N 43°24' E 004°60'0 0.0
2016-Aug-30 12:32N 43°24' E 004°60'0 0.0
2016-Aug-30 11:32N 43°24' E 004°60'0 0.0
2016-Aug-30 10:32N 43°24' E 004°60'0 0.0
2016-Aug-30 09:32N 43°24' E 004°60'0 0.0
2016-Aug-30 08:32N 43°24' E 004°60'0 0.0
2016-Aug-30 07:32N 43°24' E 004°60'0 0.0
2016-Aug-30 06:31N 43°24' E 004°60'0 0.0
2016-Aug-30 05:31N 43°24' E 004°60'0 0.0
2016-Aug-30 04:31N 43°24' E 004°60'0 0.0
2016-Aug-30 03:33N 43°24' E 004°60'0 0.0
2016-Aug-30 02:33N 43°24' E 004°60'0 0.0
2016-Aug-30 01:33N 43°24' E 004°60'0 0.0
2016-Aug-30 00:33N 43°24' E 004°60'0 0.0
2016-Aug-29 23:32N 43°24' E 004°60'0 0.0
2016-Aug-29 22:32N 43°24' E 004°60'0 0.0
2016-Aug-29 21:32N 43°24' E 004°60'0 0.0
2016-Aug-29 20:32N 43°24' E 004°60'0 0.0
2016-Aug-29 19:31N 43°24' E 004°60'2 2.6
2016-Aug-29 18:33N 43°24' E 004°56'0 0.0
2016-Aug-29 17:33N 43°24' E 004°57'0 0.0
2016-Aug-29 16:33N 43°24' E 004°57'0 0.0
2016-Aug-29 15:33N 43°24' E 004°57'2 2.2
2016-Aug-29 14:33N 43°24' E 004°59'0 0.0
2016-Aug-29 13:33N 43°24' E 004°59'0 0.0
2016-Aug-29 12:33N 43°24' E 004°59'0 0.0
2016-Aug-29 11:33N 43°24' E 004°59'0 0.0
2016-Aug-29 10:33N 43°24' E 004°59'0 0.0
2016-Aug-29 09:33N 43°24' E 004°59'2 2.4
2016-Aug-29 08:33N 43°24' E 004°56'2 2.0
2016-Aug-29 07:33N 43°25' E 004°54'0 0.0
2016-Aug-29 06:21N 43°25' E 004°54'0 0.0
2016-Aug-29 05:33N 43°25' E 004°54'0 0.0
2016-Aug-29 04:33N 43°25' E 004°54'0 0.0
2016-Aug-29 03:25N 43°25' E 004°54'5 5.4
2016-Aug-29 02:33N 43°24' E 004°60'0 0.0
2016-Aug-29 01:33N 43°24' E 004°60'0 0.0
2016-Aug-29 00:33N 43°24' E 004°60'0 0.0
2016-Aug-28 23:33N 43°24' E 004°60'0 0.0
2016-Aug-28 22:33N 43°24' E 004°60'0 0.0
2016-Aug-28 21:33N 43°24' E 004°60'0 0.0
2016-Aug-28 20:33N 43°24' E 004°60'0 0.0
2016-Aug-28 19:33N 43°24' E 004°60'0 0.0
2016-Aug-28 18:33N 43°24' E 004°60'0 0.0
2016-Aug-28 17:33N 43°24' E 004°60'0 0.0
2016-Aug-28 16:33N 43°24' E 004°60'0 0.0
2016-Aug-28 15:33N 43°24' E 004°60'0 0.0
2016-Aug-28 14:33N 43°24' E 004°60'0 0.0
2016-Aug-28 13:33N 43°24' E 004°60'0 0.0
2016-Aug-28 12:33N 43°24' E 004°60'0 0.0
2016-Aug-28 11:33N 43°24' E 004°60'0 0.0
2016-Aug-28 10:33N 43°24' E 004°60'0 0.0
2016-Aug-28 09:33N 43°24' E 004°60'0 0.0
2016-Aug-28 08:33N 43°24' E 004°60'0 0.0
2016-Aug-28 07:33N 43°24' E 004°60'0 0.0
2016-Aug-28 06:33N 43°24' E 004°60'0 0.0
2016-Aug-28 05:33N 43°24' E 004°60'0 0.0
2016-Aug-28 04:33N 43°24' E 004°60'0 0.0
2016-Aug-28 03:33N 43°24' E 004°60'0 0.0
2016-Aug-28 02:33N 43°24' E 004°60'0 0.0
2016-Aug-28 01:33N 43°24' E 004°60'0 0.0
2016-Aug-28 00:33N 43°24' E 004°60'0 0.0
2016-Aug-27 23:33N 43°24' E 004°60'0 0.0
2016-Aug-27 22:33N 43°24' E 004°60'0 0.0
2016-Aug-27 21:33N 43°24' E 004°60'0 0.0
2016-Aug-27 20:33N 43°24' E 004°60'0 0.0
2016-Aug-27 19:33N 43°24' E 004°60'0 0.0
2016-Aug-27 18:33N 43°24' E 004°60'0 0.0
2016-Aug-27 17:33N 43°24' E 004°60'0 0.0
2016-Aug-27 16:33N 43°24' E 004°60'0 0.0
2016-Aug-27 15:33N 43°24' E 004°60'0 0.0
2016-Aug-27 14:33N 43°24' E 004°60'0 0.0
2016-Aug-27 13:33N 43°24' E 004°60'0 0.0
2016-Aug-27 12:33N 43°24' E 004°60'0 0.0
2016-Aug-27 11:33N 43°24' E 004°60'0 0.0
2016-Aug-27 10:33N 43°24' E 004°60'0 0.0
2016-Aug-27 09:33N 43°24' E 004°60'0 0.0
2016-Aug-27 08:34N 43°24' E 004°60'0 0.0
2016-Aug-27 07:34N 43°24' E 004°60'0 0.0
2016-Aug-27 06:33N 43°24' E 004°60'2 0.8
2016-Aug-27 04:33N 43°23' E 004°58'0 0.0
2016-Aug-27 03:33N 43°23' E 004°58'0 0.0
2016-Aug-27 02:34N 43°23' E 004°58'2 1.6
2016-Aug-27 01:31N 43°24' E 004°60'0 0.0
2016-Aug-27 00:28N 43°24' E 004°60'0 0.0
2016-Aug-26 23:31N 43°24' E 004°60'0 0.0
2016-Aug-26 22:31N 43°24' E 004°60'0 0.0
2016-Aug-26 21:31N 43°24' E 004°60'0 0.0
2016-Aug-26 20:31N 43°24' E 004°60'0 0.0
2016-Aug-26 19:31N 43°24' E 004°60'0 0.0
2016-Aug-26 18:31N 43°24' E 004°60'0 0.0
2016-Aug-26 17:31N 43°24' E 004°60'4 4.2
2016-Aug-26 16:33N 43°24' E 004°54'1 0.7
2016-Aug-26 15:33N 43°25' E 004°54'0 0.0
2016-Aug-26 14:33N 43°25' E 004°54'5 4.5
2016-Aug-26 13:31N 43°24' E 004°60'0 0.0
2016-Aug-26 12:32N 43°24' E 004°60'0 0.0
2016-Aug-26 11:32N 43°24' E 004°60'0 0.0
2016-Aug-26 10:32N 43°24' E 004°60'0 0.0
2016-Aug-26 09:32N 43°24' E 004°60'0 0.0
2016-Aug-26 08:26N 43°24' E 004°60'0 0.0
2016-Aug-26 07:29N 43°24' E 004°60'0 0.0
2016-Aug-26 06:32N 43°24' E 004°60'0 0.0
2016-Aug-26 04:32N 43°24' E 004°60'0 0.0
2016-Aug-26 03:29N 43°24' E 004°60'0 0.0
2016-Aug-26 02:32N 43°24' E 004°60'0 0.0
2016-Aug-26 01:32N 43°24' E 004°60'0 0.0
2016-Aug-26 00:32N 43°24' E 004°60'0 0.0
2016-Aug-25 23:32N 43°24' E 004°60'0 0.0
2016-Aug-25 22:32N 43°24' E 004°60'0 0.0
2016-Aug-25 21:31N 43°24' E 004°60'0 0.0
2016-Aug-25 20:31N 43°24' E 004°60'0 0.0
2016-Aug-25 19:31N 43°24' E 004°60'0 0.0
2016-Aug-25 18:31N 43°24' E 004°60'0 0.0
2016-Aug-25 17:31N 43°24' E 004°60'0 0.0
2016-Aug-25 16:31N 43°24' E 004°60'0 0.0
2016-Aug-25 15:31N 43°24' E 004°60'0 0.0
2016-Aug-25 14:31N 43°24' E 004°60'0 0.0
2016-Aug-25 13:31N 43°24' E 004°60'0 0.0
2016-Aug-25 12:31N 43°24' E 004°60'0 0.0
2016-Aug-25 11:32N 43°24' E 004°60'0 0.0
2016-Aug-25 10:32N 43°24' E 004°60'0 0.0
2016-Aug-25 09:32N 43°24' E 004°60'0 0.0
2016-Aug-25 08:32N 43°24' E 004°60'3 2.8
2016-Aug-25 07:33N 43°24' E 004°56'2 2.3
2016-Aug-25 06:34N 43°24' E 004°53'0 0.0
2016-Aug-25 04:34N 43°24' E 004°53'0 0.0
2016-Aug-25 03:33N 43°24' E 004°53'3 2.8
2016-Aug-25 02:33N 43°23' E 004°57'2 1.8
2016-Aug-25 01:33N 43°24' E 004°59'0 0.0
2016-Aug-25 00:33N 43°24' E 004°59'0 0.0
2016-Aug-24 23:33N 43°24' E 004°59'0 0.0
2016-Aug-24 22:33N 43°24' E 004°59'0 0.0
2016-Aug-24 21:33N 43°24' E 004°59'0 0.0
2016-Aug-24 20:33N 43°24' E 004°59'0 0.0
2016-Aug-24 19:33N 43°24' E 004°59'1 1.2
2016-Aug-24 18:33N 43°23' E 004°58'3 3.4
2016-Aug-24 17:33N 43°24' E 004°53'0 0.0
2016-Aug-24 16:33N 43°24' E 004°53'0 0.0
2016-Aug-24 15:33N 43°24' E 004°53'0 0.0
2016-Aug-24 14:33N 43°24' E 004°53'0 0.0
2016-Aug-24 13:33N 43°24' E 004°53'0 0.0
2016-Aug-24 12:33N 43°24' E 004°53'0 0.0
2016-Aug-24 11:33N 43°24' E 004°53'5 4.7
2016-Aug-24 10:33N 43°24' E 004°60'0 0.0
2016-Aug-24 09:33N 43°24' E 004°60'0 0.0
2016-Aug-24 08:30N 43°24' E 004°60'0 0.0
2016-Aug-24 07:33N 43°24' E 004°60'0 0.0
2016-Aug-24 06:32N 43°24' E 004°60'0 0.0
2016-Aug-24 04:31N 43°24' E 004°60'0 0.0
2016-Aug-24 03:31N 43°24' E 004°60'0 0.0
2016-Aug-24 02:31N 43°24' E 004°60'0 0.0
2016-Aug-24 01:31N 43°24' E 004°60'0 0.0
2016-Aug-24 00:31N 43°24' E 004°60'0 0.0
2016-Aug-23 23:31N 43°24' E 004°60'0 0.0
2016-Aug-23 22:31N 43°24' E 004°60'0 0.0
2016-Aug-23 21:31N 43°24' E 004°60'0 0.0
2016-Aug-23 20:32N 43°24' E 004°60'0 0.0
2016-Aug-23 19:32N 43°24' E 004°60'0 0.0
2016-Aug-23 18:32N 43°24' E 004°60'0 0.0
2016-Aug-23 17:32N 43°24' E 004°60'0 0.0
2016-Aug-23 16:32N 43°24' E 004°60'0 0.0
2016-Aug-23 15:32N 43°24' E 004°60'0 0.0
2016-Aug-23 14:29N 43°24' E 004°60'0 0.0
2016-Aug-23 13:32N 43°24' E 004°60'0 0.0
2016-Aug-23 12:32N 43°24' E 004°60'0 0.0
2016-Aug-23 11:32N 43°24' E 004°60'0 0.0
2016-Aug-23 10:32N 43°24' E 004°60'0 0.0
2016-Aug-23 09:29N 43°24' E 004°60'0 0.0
2016-Aug-23 08:33N 43°24' E 004°60'0 0.0
2016-Aug-23 07:32N 43°24' E 004°60'0 0.0
2016-Aug-23 06:32N 43°24' E 004°60'0 0.0
2016-Aug-23 05:32N 43°24' E 004°60'0 0.0
2016-Aug-23 04:32N 43°24' E 004°60'0 0.0
2016-Aug-23 03:32N 43°24' E 004°60'0 0.0
2016-Aug-23 02:32N 43°24' E 004°60'0 0.0
2016-Aug-23 01:32N 43°24' E 004°60'0 0.0
2016-Aug-23 00:32N 43°24' E 004°60'0 0.0
2016-Aug-22 23:32N 43°24' E 004°60'0 0.0
2016-Aug-22 22:32N 43°24' E 004°60'0 0.0
2016-Aug-22 21:32N 43°24' E 004°60'0 0.0
2016-Aug-22 20:31N 43°24' E 004°60'0 0.0
2016-Aug-22 19:28N 43°24' E 004°60'0 0.0
2016-Aug-22 18:31N 43°24' E 004°60'0 0.0
2016-Aug-22 17:31N 43°24' E 004°60'0 0.0
2016-Aug-22 16:33N 43°24' E 004°60'0 0.0
2016-Aug-22 15:33N 43°24' E 004°60'1 0.7
2016-Aug-22 14:33N 43°24' E 004°59'0 0.0
2016-Aug-22 13:34N 43°24' E 004°59'0 0.0
2016-Aug-22 12:33N 43°24' E 004°59'0 0.0
2016-Aug-22 11:33N 43°24' E 004°59'0 0.0
2016-Aug-22 10:33N 43°24' E 004°59'0 0.0
2016-Aug-22 09:33N 43°24' E 004°59'0 0.3
2016-Aug-22 08:33N 43°24' E 004°59'0 0.4
2016-Aug-22 07:32N 43°24' E 004°60'0 0.0
2016-Aug-22 06:32N 43°24' E 004°60'0 0.0
2016-Aug-22 05:29N 43°24' E 004°60'0 0.0
2016-Aug-22 04:33N 43°24' E 004°60'0 0.0
2016-Aug-22 03:33N 43°24' E 004°60'0 0.0
2016-Aug-22 02:33N 43°24' E 004°60'0 0.0
2016-Aug-22 01:33N 43°24' E 004°60'0 0.0
2016-Aug-22 00:33N 43°24' E 004°60'0 0.0
2016-Aug-21 23:33N 43°24' E 004°60'0 0.0
2016-Aug-21 22:33N 43°24' E 004°60'0 0.0
2016-Aug-21 21:33N 43°24' E 004°60'0 0.0
2016-Aug-21 20:33N 43°24' E 004°60'0 0.0
2016-Aug-21 19:33N 43°24' E 004°60'0 0.0
2016-Aug-21 18:33N 43°24' E 004°60'0 0.0
2016-Aug-21 17:31N 43°24' E 004°60'0 0.0
2016-Aug-21 16:31N 43°24' E 004°60'0 0.0
2016-Aug-21 15:31N 43°24' E 004°60'3 2.9
2016-Aug-21 14:33N 43°24' E 004°56'0 0.5
2016-Aug-21 13:33N 43°24' E 004°56'1 1.4
2016-Aug-21 12:33N 43°24' E 004°57'2 1.9
2016-Aug-21 11:33N 43°24' E 004°60'0 0.0
2016-Aug-21 10:33N 43°24' E 004°60'0 0.0
2016-Aug-21 09:33N 43°24' E 004°60'0 0.0
2016-Aug-21 08:33N 43°24' E 004°60'0 0.0
2016-Aug-21 07:33N 43°24' E 004°60'0 0.0
2016-Aug-21 06:33N 43°24' E 004°60'0 0.0
2016-Aug-21 05:33N 43°24' E 004°60'0 0.0
2016-Aug-21 04:32N 43°24' E 004°60'  
Track history (hours):
 
Tides and Currents Weather Stations Pressure Air Temp Water Temp Dewpoint Dewpoint Depression Visibility Wind Speed Wind Dir Waves Ship Positions

Shana Des Slops

Last reported at 2016-Aug-31 03:30 UTC. Time now 2016-Aug-31 04:19 UTC.
Position N 43°24' E 004°60'.

Length 47 m; draft 3.2 m.

Type: Ship. MMSI: 228003800.

Date/timePositionNaut miles runAvg speedWind from/ knotsBaromVisibWave heightAir tempDewpointWater temp
2016-Aug-31 03:30N 43°24' E 004°60'0 0.0
2016-Aug-31 02:33N 43°24' E 004°60'0 0.0
2016-Aug-31 01:33N 43°24' E 004°60'0 0.0
2016-Aug-31 00:33N 43°24' E 004°60'0 0.0
2016-Aug-30 23:31N 43°24' E 004°60'0 0.0
2016-Aug-30 22:31N 43°24' E 004°60'0 0.0
2016-Aug-30 21:31N 43°24' E 004°60'0 0.0
2016-Aug-30 20:31N 43°24' E 004°60'0 0.0
2016-Aug-30 19:28N 43°24' E 004°60'0 0.0
2016-Aug-30 18:33N 43°24' E 004°60'0 0.0
2016-Aug-30 17:33N 43°24' E 004°60'0 0.0
2016-Aug-30 16:33N 43°24' E 004°60'0 0.0
2016-Aug-30 15:33N 43°24' E 004°60'0 0.0
2016-Aug-30 14:27N 43°24' E 004°60'0 0.0
2016-Aug-30 13:33N 43°24' E 004°60'0 0.0
2016-Aug-30 12:32N 43°24' E 004°60'0 0.0
2016-Aug-30 11:32N 43°24' E 004°60'0 0.0
2016-Aug-30 10:32N 43°24' E 004°60'0 0.0
2016-Aug-30 09:32N 43°24' E 004°60'0 0.0
2016-Aug-30 08:32N 43°24' E 004°60'0 0.0
2016-Aug-30 07:32N 43°24' E 004°60'0 0.0
2016-Aug-30 06:31N 43°24' E 004°60'0 0.0
2016-Aug-30 05:31N 43°24' E 004°60'0 0.0
2016-Aug-30 04:31N 43°24' E 004°60'0 0.0
2016-Aug-30 03:33N 43°24' E 004°60'0 0.0
2016-Aug-30 02:33N 43°24' E 004°60'0 0.0
2016-Aug-30 01:33N 43°24' E 004°60'0 0.0
2016-Aug-30 00:33N 43°24' E 004°60'0 0.0
2016-Aug-29 23:32N 43°24' E 004°60'0 0.0
2016-Aug-29 22:32N 43°24' E 004°60'0 0.0
2016-Aug-29 21:32N 43°24' E 004°60'0 0.0
2016-Aug-29 20:32N 43°24' E 004°60'0 0.0
2016-Aug-29 19:31N 43°24' E 004°60'2 2.6
2016-Aug-29 18:33N 43°24' E 004°56'0 0.0
2016-Aug-29 17:33N 43°24' E 004°57'0 0.0
2016-Aug-29 16:33N 43°24' E 004°57'0 0.0
2016-Aug-29 15:33N 43°24' E 004°57'2 2.2
2016-Aug-29 14:33N 43°24' E 004°59'0 0.0
2016-Aug-29 13:33N 43°24' E 004°59'0 0.0
2016-Aug-29 12:33N 43°24' E 004°59'0 0.0
2016-Aug-29 11:33N 43°24' E 004°59'0 0.0
2016-Aug-29 10:33N 43°24' E 004°59'0 0.0
2016-Aug-29 09:33N 43°24' E 004°59'2 2.4
2016-Aug-29 08:33N 43°24' E 004°56'2 2.0
2016-Aug-29 07:33N 43°25' E 004°54'0 0.0
2016-Aug-29 06:21N 43°25' E 004°54'0 0.0
2016-Aug-29 05:33N 43°25' E 004°54'0 0.0
2016-Aug-29 04:33N 43°25' E 004°54'0 0.0
2016-Aug-29 03:25N 43°25' E 004°54'5 5.4
2016-Aug-29 02:33N 43°24' E 004°60'0 0.0
2016-Aug-29 01:33N 43°24' E 004°60'0 0.0
2016-Aug-29 00:33N 43°24' E 004°60'0 0.0
2016-Aug-28 23:33N 43°24' E 004°60'0 0.0
2016-Aug-28 22:33N 43°24' E 004°60'0 0.0
2016-Aug-28 21:33N 43°24' E 004°60'0 0.0
2016-Aug-28 20:33N 43°24' E 004°60'0 0.0
2016-Aug-28 19:33N 43°24' E 004°60'0 0.0
2016-Aug-28 18:33N 43°24' E 004°60'0 0.0
2016-Aug-28 17:33N 43°24' E 004°60'0 0.0
2016-Aug-28 16:33N 43°24' E 004°60'0 0.0
2016-Aug-28 15:33N 43°24' E 004°60'0 0.0
2016-Aug-28 14:33N 43°24' E 004°60'0 0.0
2016-Aug-28 13:33N 43°24' E 004°60'0 0.0
2016-Aug-28 12:33N 43°24' E 004°60'0 0.0
2016-Aug-28 11:33N 43°24' E 004°60'0 0.0
2016-Aug-28 10:33N 43°24' E 004°60'0 0.0
2016-Aug-28 09:33N 43°24' E 004°60'0 0.0
2016-Aug-28 08:33N 43°24' E 004°60'0 0.0
2016-Aug-28 07:33N 43°24' E 004°60'0 0.0
2016-Aug-28 06:33N 43°24' E 004°60'0 0.0
2016-Aug-28 05:33N 43°24' E 004°60'0 0.0
2016-Aug-28 04:33N 43°24' E 004°60'0 0.0
2016-Aug-28 03:33N 43°24' E 004°60'0 0.0
2016-Aug-28 02:33N 43°24' E 004°60'0 0.0
2016-Aug-28 01:33N 43°24' E 004°60'0 0.0
2016-Aug-28 00:33N 43°24' E 004°60'0 0.0
2016-Aug-27 23:33N 43°24' E 004°60'0 0.0
2016-Aug-27 22:33N 43°24' E 004°60'0 0.0
2016-Aug-27 21:33N 43°24' E 004°60'0 0.0
2016-Aug-27 20:33N 43°24' E 004°60'0 0.0
2016-Aug-27 19:33N 43°24' E 004°60'0 0.0
2016-Aug-27 18:33N 43°24' E 004°60'0 0.0
2016-Aug-27 17:33N 43°24' E 004°60'0 0.0
2016-Aug-27 16:33N 43°24' E 004°60'0 0.0
2016-Aug-27 15:33N 43°24' E 004°60'0 0.0
2016-Aug-27 14:33N 43°24' E 004°60'0 0.0
2016-Aug-27 13:33N 43°24' E 004°60'0 0.0
2016-Aug-27 12:33N 43°24' E 004°60'0 0.0
2016-Aug-27 11:33N 43°24' E 004°60'0 0.0
2016-Aug-27 10:33N 43°24' E 004°60'0 0.0
2016-Aug-27 09:33N 43°24' E 004°60'0 0.0
2016-Aug-27 08:34N 43°24' E 004°60'0 0.0
2016-Aug-27 07:34N 43°24' E 004°60'0 0.0
2016-Aug-27 06:33N 43°24' E 004°60'2 0.8
2016-Aug-27 04:33N 43°23' E 004°58'0 0.0
2016-Aug-27 03:33N 43°23' E 004°58'0 0.0
2016-Aug-27 02:34N 43°23' E 004°58'2 1.6
2016-Aug-27 01:31N 43°24' E 004°60'0 0.0
2016-Aug-27 00:28N 43°24' E 004°60'0 0.0
2016-Aug-26 23:31N 43°24' E 004°60'0 0.0
2016-Aug-26 22:31N 43°24' E 004°60'0 0.0
2016-Aug-26 21:31N 43°24' E 004°60'0 0.0
2016-Aug-26 20:31N 43°24' E 004°60'0 0.0
2016-Aug-26 19:31N 43°24' E 004°60'0 0.0
2016-Aug-26 18:31N 43°24' E 004°60'0 0.0
2016-Aug-26 17:31N 43°24' E 004°60'4 4.2
2016-Aug-26 16:33N 43°24' E 004°54'1 0.7
2016-Aug-26 15:33N 43°25' E 004°54'0 0.0
2016-Aug-26 14:33N 43°25' E 004°54'5 4.5
2016-Aug-26 13:31N 43°24' E 004°60'0 0.0
2016-Aug-26 12:32N 43°24' E 004°60'0 0.0
2016-Aug-26 11:32N 43°24' E 004°60'0 0.0
2016-Aug-26 10:32N 43°24' E 004°60'0 0.0
2016-Aug-26 09:32N 43°24' E 004°60'0 0.0
2016-Aug-26 08:26N 43°24' E 004°60'0 0.0
2016-Aug-26 07:29N 43°24' E 004°60'0 0.0
2016-Aug-26 06:32N 43°24' E 004°60'0 0.0
2016-Aug-26 04:32N 43°24' E 004°60'0 0.0
2016-Aug-26 03:29N 43°24' E 004°60'0 0.0
2016-Aug-26 02:32N 43°24' E 004°60'0 0.0
2016-Aug-26 01:32N 43°24' E 004°60'0 0.0
2016-Aug-26 00:32N 43°24' E 004°60'0 0.0
2016-Aug-25 23:32N 43°24' E 004°60'0 0.0
2016-Aug-25 22:32N 43°24' E 004°60'0 0.0
2016-Aug-25 21:31N 43°24' E 004°60'0 0.0
2016-Aug-25 20:31N 43°24' E 004°60'0 0.0
2016-Aug-25 19:31N 43°24' E 004°60'0 0.0
2016-Aug-25 18:31N 43°24' E 004°60'0 0.0
2016-Aug-25 17:31N 43°24' E 004°60'0 0.0
2016-Aug-25 16:31N 43°24' E 004°60'0 0.0
2016-Aug-25 15:31N 43°24' E 004°60'0 0.0
2016-Aug-25 14:31N 43°24' E 004°60'0 0.0
2016-Aug-25 13:31N 43°24' E 004°60'0 0.0
2016-Aug-25 12:31N 43°24' E 004°60'0 0.0
2016-Aug-25 11:32N 43°24' E 004°60'0 0.0
2016-Aug-25 10:32N 43°24' E 004°60'0 0.0
2016-Aug-25 09:32N 43°24' E 004°60'0 0.0
2016-Aug-25 08:32N 43°24' E 004°60'3 2.8
2016-Aug-25 07:33N 43°24' E 004°56'2 2.3
2016-Aug-25 06:34N 43°24' E 004°53'0 0.0
2016-Aug-25 04:34N 43°24' E 004°53'0 0.0
2016-Aug-25 03:33N 43°24' E 004°53'3 2.8
2016-Aug-25 02:33N 43°23' E 004°57'2 1.8
2016-Aug-25 01:33N 43°24' E 004°59'0 0.0
2016-Aug-25 00:33N 43°24' E 004°59'0 0.0
2016-Aug-24 23:33N 43°24' E 004°59'0 0.0
2016-Aug-24 22:33N 43°24' E 004°59'0 0.0
2016-Aug-24 21:33N 43°24' E 004°59'0 0.0
2016-Aug-24 20:33N 43°24' E 004°59'0 0.0
2016-Aug-24 19:33N 43°24' E 004°59'1 1.2
2016-Aug-24 18:33N 43°23' E 004°58'3 3.4
2016-Aug-24 17:33N 43°24' E 004°53'0 0.0
2016-Aug-24 16:33N 43°24' E 004°53'0 0.0
2016-Aug-24 15:33N 43°24' E 004°53'0 0.0
2016-Aug-24 14:33N 43°24' E 004°53'0 0.0
2016-Aug-24 13:33N 43°24' E 004°53'0 0.0
2016-Aug-24 12:33N 43°24' E 004°53'0 0.0
2016-Aug-24 11:33N 43°24' E 004°53'5 4.7
2016-Aug-24 10:33N 43°24' E 004°60'0 0.0
2016-Aug-24 09:33N 43°24' E 004°60'0 0.0
2016-Aug-24 08:30N 43°24' E 004°60'0 0.0
2016-Aug-24 07:33N 43°24' E 004°60'0 0.0
2016-Aug-24 06:32N 43°24' E 004°60'0 0.0
2016-Aug-24 04:31N 43°24' E 004°60'0 0.0
2016-Aug-24 03:31N 43°24' E 004°60'0 0.0
2016-Aug-24 02:31N 43°24' E 004°60'0 0.0
2016-Aug-24 01:31N 43°24' E 004°60'0 0.0
2016-Aug-24 00:31N 43°24' E 004°60'0 0.0
2016-Aug-23 23:31N 43°24' E 004°60'0 0.0
2016-Aug-23 22:31N 43°24' E 004°60'0 0.0
2016-Aug-23 21:31N 43°24' E 004°60'0 0.0
2016-Aug-23 20:32N 43°24' E 004°60'0 0.0
2016-Aug-23 19:32N 43°24' E 004°60'0 0.0
2016-Aug-23 18:32N 43°24' E 004°60'0 0.0
2016-Aug-23 17:32N 43°24' E 004°60'0 0.0
2016-Aug-23 16:32N 43°24' E 004°60'0 0.0
2016-Aug-23 15:32N 43°24' E 004°60'0 0.0
2016-Aug-23 14:29N 43°24' E 004°60'0 0.0
2016-Aug-23 13:32N 43°24' E 004°60'0 0.0
2016-Aug-23 12:32N 43°24' E 004°60'0 0.0
2016-Aug-23 11:32N 43°24' E 004°60'0 0.0
2016-Aug-23 10:32N 43°24' E 004°60'0 0.0
2016-Aug-23 09:29N 43°24' E 004°60'0 0.0
2016-Aug-23 08:33N 43°24' E 004°60'0 0.0
2016-Aug-23 07:32N 43°24' E 004°60'0 0.0
2016-Aug-23 06:32N 43°24' E 004°60'0 0.0
2016-Aug-23 05:32N 43°24' E 004°60'0 0.0
2016-Aug-23 04:32N 43°24' E 004°60'0 0.0
2016-Aug-23 03:32N 43°24' E 004°60'0 0.0
2016-Aug-23 02:32N 43°24' E 004°60'0 0.0
2016-Aug-23 01:32N 43°24' E 004°60'0 0.0
2016-Aug-23 00:32N 43°24' E 004°60'0 0.0
2016-Aug-22 23:32N 43°24' E 004°60'0 0.0
2016-Aug-22 22:32N 43°24' E 004°60'0 0.0
2016-Aug-22 21:32N 43°24' E 004°60'0 0.0
2016-Aug-22 20:31N 43°24' E 004°60'0 0.0
2016-Aug-22 19:28N 43°24' E 004°60'0 0.0
2016-Aug-22 18:31N 43°24' E 004°60'0 0.0
2016-Aug-22 17:31N 43°24' E 004°60'0 0.0
2016-Aug-22 16:33N 43°24' E 004°60'0 0.0
2016-Aug-22 15:33N 43°24' E 004°60'1 0.7
2016-Aug-22 14:33N 43°24' E 004°59'0 0.0
2016-Aug-22 13:34N 43°24' E 004°59'0 0.0
2016-Aug-22 12:33N 43°24' E 004°59'0 0.0
2016-Aug-22 11:33N 43°24' E 004°59'0 0.0
2016-Aug-22 10:33N 43°24' E 004°59'0 0.0
2016-Aug-22 09:33N 43°24' E 004°59'0 0.3
2016-Aug-22 08:33N 43°24' E 004°59'0 0.4
2016-Aug-22 07:32N 43°24' E 004°60'0 0.0
2016-Aug-22 06:32N 43°24' E 004°60'0 0.0
2016-Aug-22 05:29N 43°24' E 004°60'0 0.0
2016-Aug-22 04:33N 43°24' E 004°60'0 0.0
2016-Aug-22 03:33N 43°24' E 004°60'0 0.0
2016-Aug-22 02:33N 43°24' E 004°60'0 0.0
2016-Aug-22 01:33N 43°24' E 004°60'0 0.0
2016-Aug-22 00:33N 43°24' E 004°60'0 0.0
2016-Aug-21 23:33N 43°24' E 004°60'0 0.0
2016-Aug-21 22:33N 43°24' E 004°60'0 0.0
2016-Aug-21 21:33N 43°24' E 004°60'0 0.0
2016-Aug-21 20:33N 43°24' E 004°60'0 0.0
2016-Aug-21 19:33N 43°24' E 004°60'0 0.0
2016-Aug-21 18:33N 43°24' E 004°60'0 0.0
2016-Aug-21 17:31N 43°24' E 004°60'0 0.0
2016-Aug-21 16:31N 43°24' E 004°60'0 0.0
2016-Aug-21 15:31N 43°24' E 004°60'3 2.9
2016-Aug-21 14:33N 43°24' E 004°56'0 0.5
2016-Aug-21 13:33N 43°24' E 004°56'1 1.4
2016-Aug-21 12:33N 43°24' E 004°57'2 1.9
2016-Aug-21 11:33N 43°24' E 004°60'0 0.0
2016-Aug-21 10:33N 43°24' E 004°60'0 0.0
2016-Aug-21 09:33N 43°24' E 004°60'0 0.0
2016-Aug-21 08:33N 43°24' E 004°60'0 0.0
2016-Aug-21 07:33N 43°24' E 004°60'0 0.0
2016-Aug-21 06:33N 43°24' E 004°60'0 0.0
2016-Aug-21 05:33N 43°24' E 004°60'0 0.0
2016-Aug-21 04:32N 43°24' E 004°60'  

Dump ship's entire track history